This is the latest recevied weather packets stored in our database for station/object 9W2CHF-3. If no packets are shown the sender has not sent any weather packets the latest 10 day(s).
| Time | Temp. | Humidity | Pressure | Rain* | Wind** | Luminosity | Snow |
|---|---|---|---|---|---|---|---|
| 1777604812 | 36.67° C | 66% | 1012.1 hPa | - | - | - | - |
| 1777603612 | 37.22° C | 69% | 1011.9 hPa | - | - | - | - |
| 1777602411 | 36.67° C | 73% | 1012 hPa | - | - | - | - |
| 1777579609 | 30.56° C | 96% | 1009.6 hPa | - | - | - | - |
| 1777577209 | 30° C | 99% | 1009.9 hPa | - | - | - | - |
| 1777568813 | 32.22° C | 87% | 1011.3 hPa | - | - | - | - |
| 1777567613 | 31.67° C | 86% | 1011.3 hPa | - | - | - | - |
| 1777565213 | 33.33° C | 81% | 1011.7 hPa | - | - | - | - |
| 1777564013 | 33.33° C | 78% | 1011.7 hPa | - | - | - | - |
| 1777550810 | 34.44° C | 72% | 1009.3 hPa | - | - | - | - |
| 1777546010 | 34.44° C | 67% | 1008.9 hPa | - | - | - | - |
| 1777544810 | 35° C | 65% | 1008.5 hPa | - | - | - | - |
| 1777543610 | 36.67° C | 60% | 1008.5 hPa | - | - | - | - |
| 1777542410 | 37.22° C | 58% | 1008.3 hPa | - | - | - | - |
| 1777541210 | 38.33° C | 53% | 1008.2 hPa | - | - | - | - |
| 1777540015 | 40° C | 50% | 1008 hPa | - | - | - | - |
| 1777538810 | 38.89° C | 50% | 1008.1 hPa | - | - | - | - |
| 1777537609 | 39.44° C | 50% | 1007.9 hPa | - | - | - | - |
| 1777536409 | 38.33° C | 52% | 1008.1 hPa | - | - | - | - |
| 1777534008 | 41.11° C | 46% | 1008.6 hPa | - | - | - | - |
| 1777532808 | 41.67° C | 44% | 1008.9 hPa | - | - | - | - |
| 1777531607 | 41.11° C | 46% | 1008.8 hPa | - | - | - | - |
| 1777530412 | 41.67° C | 45% | 1009.2 hPa | - | - | - | - |
| 1777529212 | 41.11° C | 45% | 1009.6 hPa | - | - | - | - |
| 1777528012 | 42.22° C | 45% | 1009.9 hPa | - | - | - | - |
* Rain since midnight (hover to see other rain measurements)
** Current wind speed in m/s (hover to see current wind gust speed)